Time;durP1;ratioP1;P1;durP2;ratioP2;P2;SDS_P1;SDS_P2;PMS_P1;PMS_P2;Temp;Humidity;BMP_temperature;BMP_pressure;BME280_temperature;BME280_humidity;BME280_pressure;Samples;Min_cycle;Max_cycle;Signal;HPM_P1;HPM_P2
2022/11/10 00:00:19;;;;;;;13.03;9.20;;;10.30;99.90;;;;;;5092792;28;20316;-73
2022/11/10 00:02:45;;;;;;;16.57;10.43;;;10.20;99.90;;;;;;5092754;28;20200;-73
2022/11/10 00:05:14;;;;;;;19.23;10.60;;;10.20;99.90;;;;;;5092628;28;20250;-73
2022/11/10 00:07:41;;;;;;;18.07;10.67;;;10.20;99.90;;;;;;5095685;28;20242;-73
2022/11/10 00:10:09;;;;;;;18.57;10.63;;;10.20;99.90;;;;;;5096728;28;20232;-73
2022/11/10 00:12:36;;;;;;;15.70;10.80;;;10.20;99.90;;;;;;5096665;28;20200;-73
2022/11/10 00:17:48;;;;;;;18.77;10.50;;;10.20;99.90;;;;;;5096744;28;20313;-73
2022/11/10 00:20:14;;;;;;;15.83;10.80;;;10.20;99.90;;;;;;5096498;28;20231;-74
2022/11/10 00:22:42;;;;;;;18.27;11.13;;;10.30;99.90;;;;;;5096606;28;20629;-74
2022/11/10 00:25:11;;;;;;;16.63;11.50;;;10.30;99.90;;;;;;5096424;28;20241;-73
2022/11/10 00:27:38;;;;;;;16.67;12.30;;;10.20;99.90;;;;;;5096381;28;20197;-73
2022/11/10 00:30:06;;;;;;;17.87;13.07;;;10.20;99.90;;;;;;5096507;28;20279;-73
2022/11/10 00:32:33;;;;;;;21.23;13.13;;;10.20;99.90;;;;;;5096535;28;20204;-73
2022/11/10 00:34:59;;;;;;;21.17;13.50;;;10.20;99.90;;;;;;5096319;28;20597;-73
2022/11/10 00:37:26;;;;;;;19.70;13.33;;;10.20;99.90;;;;;;5096196;28;20207;-73
2022/11/10 00:39:52;;;;;;;24.57;14.60;;;10.20;99.90;;;;;;5096293;28;20285;-73
2022/11/10 00:42:20;;;;;;;21.63;14.00;;;10.10;99.90;;;;;;5096097;28;20632;-74
2022/11/10 00:44:47;;;;;;;21.17;14.07;;;10.20;99.90;;;;;;5096280;28;20308;-73
2022/11/10 00:47:14;;;;;;;22.77;14.93;;;10.20;99.90;;;;;;5096194;28;20241;-73
2022/11/10 00:49:40;;;;;;;23.50;14.87;;;10.10;99.90;;;;;;5096077;28;20255;-73
2022/11/10 00:52:07;;;;;;;21.90;14.57;;;10.20;99.90;;;;;;5095965;28;20196;-73
2022/11/10 00:54:33;;;;;;;22.00;14.20;;;10.10;99.90;;;;;;5095868;28;20249;-73
2022/11/10 00:57:00;;;;;;;23.60;13.93;;;10.00;99.90;;;;;;5095831;28;20201;-73
2022/11/10 00:59:28;;;;;;;21.20;13.87;;;10.00;99.90;;;;;;5095781;28;20265;-73
2022/11/10 01:01:55;;;;;;;22.30;15.03;;;9.90;99.90;;;;;;5095746;28;20644;-73
2022/11/10 01:04:21;;;;;;;25.47;16.10;;;9.90;99.90;;;;;;5095658;28;20273;-73
2022/11/10 01:06:48;;;;;;;29.70;16.33;;;9.90;99.90;;;;;;5095672;28;20197;-73
2022/11/10 01:09:14;;;;;;;20.10;15.27;;;9.90;99.90;;;;;;5095862;28;20258;-73
2022/11/10 01:11:41;;;;;;;23.70;16.00;;;9.80;99.90;;;;;;5095721;28;20233;-73
2022/11/10 01:14:08;;;;;;;27.00;16.00;;;9.80;99.90;;;;;;5095634;28;20200;-73
2022/11/10 01:16:36;;;;;;;26.20;16.40;;;9.80;99.90;;;;;;5095533;28;20242;-73
2022/11/10 01:19:03;;;;;;;27.80;16.07;;;9.80;99.90;;;;;;5094993;28;20651;-73
2022/11/10 01:21:30;;;;;;;28.40;17.23;;;9.80;99.90;;;;;;5095386;28;20528;-73
2022/11/10 01:23:57;;;;;;;27.93;17.47;;;9.90;99.90;;;;;;5095485;28;20255;-73
2022/11/10 01:26:24;;;;;;;28.93;17.83;;;9.90;99.90;;;;;;5095359;28;20200;-73
2022/11/10 01:28:51;;;;;;;31.97;17.83;;;9.90;99.90;;;;;;5095334;28;20598;-73
2022/11/10 01:31:21;;;;;;;28.27;18.47;;;9.90;99.90;;;;;;5095235;28;20609;-73
2022/11/10 01:33:49;;;;;;;28.57;18.10;;;9.90;99.90;;;;;;5095185;28;20200;-73
2022/11/10 01:36:16;;;;;;;29.43;17.53;;;9.90;99.90;;;;;;5095270;28;20560;-73
2022/11/10 01:38:43;;;;;;;24.03;16.80;;;9.90;99.90;;;;;;5095346;28;20265;-73
2022/11/10 01:41:11;;;;;;;29.37;17.83;;;9.90;99.90;;;;;;5095021;28;20224;-73
2022/11/10 01:43:38;;;;;;;25.40;16.33;;;9.80;99.90;;;;;;5095134;28;20196;-73
2022/11/10 01:46:06;;;;;;;23.50;17.40;;;9.80;99.90;;;;;;5094798;28;20200;-73
2022/11/10 01:48:36;;;;;;;26.90;17.20;;;9.80;99.90;;;;;;5095099;28;20886;-73
2022/11/10 01:51:08;;;;;;;25.73;15.37;;;9.80;99.90;;;;;;5095034;28;20211;-73
2022/11/10 01:53:38;;;;;;;21.57;15.03;;;9.80;99.90;;;;;;5095018;28;20249;-73
2022/11/10 01:56:06;;;;;;;25.77;15.83;;;9.80;99.90;;;;;;5094685;28;20212;-73
2022/11/10 01:58:39;;;;;;;24.60;15.53;;;9.70;99.90;;;;;;5094680;28;20714;-73
2022/11/10 02:01:06;;;;;;;21.83;15.03;;;9.70;99.90;;;;;;5094730;28;20323;-73
2022/11/10 02:03:38;;;;;;;23.93;15.53;;;9.70;99.90;;;;;;5094731;28;20246;-73
2022/11/10 02:06:07;;;;;;;26.90;16.20;;;9.70;99.90;;;;;;5094783;28;20250;-73
2022/11/10 02:08:35;;;;;;;27.70;15.90;;;9.60;99.90;;;;;;5094583;28;20201;-73
2022/11/10 02:11:01;;;;;;;22.93;15.47;;;9.60;99.90;;;;;;5094516;28;20200;-73
2022/11/10 02:13:28;;;;;;;24.20;15.90;;;9.60;99.90;;;;;;5094390;28;20247;-72
2022/11/10 02:15:55;;;;;;;25.37;15.80;;;9.60;99.90;;;;;;5094654;28;20253;-73
2022/11/10 02:18:21;;;;;;;29.87;15.33;;;9.50;99.90;;;;;;5094462;28;20200;-72
2022/11/10 02:20:49;;;;;;;27.90;16.50;;;9.50;99.90;;;;;;5094258;28;20224;-73
2022/11/10 02:23:44;;;;;;;23.40;16.20;;;9.40;99.90;;;;;;5094219;28;20667;-73
2022/11/10 02:26:11;;;;;;;23.20;15.83;;;9.40;99.90;;;;;;5094453;28;20288;-73
2022/11/10 02:28:38;;;;;;;25.67;15.53;;;9.30;99.90;;;;;;5093807;28;20712;-73
2022/11/10 02:31:07;;;;;;;27.37;15.90;;;9.20;99.90;;;;;;5093708;28;20651;-73
2022/11/10 02:33:34;;;;;;;25.13;15.23;;;9.20;99.90;;;;;;5094151;28;20197;-73
2022/11/10 02:36:02;;;;;;;24.47;15.33;;;9.10;99.90;;;;;;5093953;28;20200;-72
2022/11/10 02:38:28;;;;;;;22.33;14.77;;;9.00;99.90;;;;;;5093818;28;20678;-72
2022/11/10 02:40:55;;;;;;;26.97;15.50;;;9.00;99.90;;;;;;5093977;28;20224;-73
2022/11/10 02:43:22;;;;;;;25.80;16.37;;;9.00;99.90;;;;;;5094027;28;20201;-72
2022/11/10 02:45:48;;;;;;;25.90;16.27;;;8.90;99.90;;;;;;5093836;28;20203;-72
2022/11/10 02:48:16;;;;;;;25.03;15.50;;;8.90;99.90;;;;;;5093802;28;20200;-73
2022/11/10 02:50:43;;;;;;;27.53;16.60;;;8.80;99.90;;;;;;5093771;28;20242;-72
2022/11/10 02:53:11;;;;;;;23.00;16.77;;;8.80;99.90;;;;;;5093974;28;20246;-72
2022/11/10 02:55:37;;;;;;;28.70;16.67;;;8.70;99.90;;;;;;5093766;28;20199;-72
2022/11/10 02:58:04;;;;;;;26.77;16.27;;;8.50;99.90;;;;;;5093750;28;20225;-73
2022/11/10 03:00:32;;;;;;;31.97;18.30;;;8.60;99.90;;;;;;5093536;28;20232;-72
2022/11/10 03:03:00;;;;;;;27.30;16.87;;;8.50;99.90;;;;;;5093429;28;20199;-72
2022/11/10 03:05:27;;;;;;;26.53;17.37;;;8.40;99.90;;;;;;5093191;28;20310;-73
2022/11/10 03:07:54;;;;;;;27.37;17.90;;;8.30;99.90;;;;;;5093404;28;20629;-72
2022/11/10 03:10:22;;;;;;;24.30;16.70;;;8.30;99.90;;;;;;5093558;28;20224;-72
2022/11/10 03:12:49;;;;;;;25.37;16.10;;;8.30;99.90;;;;;;5093410;28;20204;-72
2022/11/10 03:15:16;;;;;;;32.53;17.57;;;8.20;99.90;;;;;;5093336;28;20252;-72
2022/11/10 03:17:42;;;;;;;26.67;17.73;;;8.20;99.90;;;;;;5093236;28;20200;-73
2022/11/10 03:20:10;;;;;;;31.70;16.50;;;8.20;99.90;;;;;;5092976;28;20239;-72
2022/11/10 03:22:36;;;;;;;27.37;16.97;;;8.00;99.90;;;;;;5093286;28;20642;-72
2022/11/10 03:25:04;;;;;;;28.57;17.63;;;8.00;99.90;;;;;;5093231;28;20324;-73
2022/11/10 03:27:32;;;;;;;25.50;15.93;;;7.90;99.90;;;;;;5093241;28;20200;-72
2022/11/10 03:29:58;;;;;;;27.33;17.03;;;8.00;99.90;;;;;;5093060;28;20544;-72
2022/11/10 03:32:25;;;;;;;29.03;16.97;;;8.00;99.90;;;;;;5093006;28;20201;-72
2022/11/10 03:34:52;;;;;;;28.57;17.00;;;7.90;99.90;;;;;;5093221;28;20200;-73
2022/11/10 03:37:18;;;;;;;31.53;15.70;;;7.80;99.90;;;;;;5092974;28;20199;-72
2022/11/10 03:39:45;;;;;;;29.80;16.57;;;7.60;99.90;;;;;;5093040;28;20231;-73
2022/11/10 03:42:12;;;;;;;25.93;15.93;;;7.60;99.90;;;;;;5092966;28;20199;-72
2022/11/10 03:44:40;;;;;;;36.20;17.27;;;7.50;99.90;;;;;;5092891;28;20253;-73
2022/11/10 03:47:06;;;;;;;30.27;16.50;;;7.50;99.90;;;;;;5092781;28;20197;-73
2022/11/10 03:49:33;;;;;;;33.87;16.60;;;7.50;99.90;;;;;;5093026;28;20196;-72
2022/11/10 03:51:59;;;;;;;29.83;17.07;;;7.40;99.90;;;;;;5092954;28;20212;-72
2022/11/10 03:54:26;;;;;;;35.83;17.63;;;7.40;99.90;;;;;;5092771;28;20196;-72
2022/11/10 03:56:54;;;;;;;34.40;17.83;;;7.60;99.90;;;;;;5092910;28;20202;-72
2022/11/10 03:59:20;;;;;;;34.03;17.87;;;7.70;99.90;;;;;;5092711;28;20659;-73
2022/11/10 04:01:48;;;;;;;28.33;16.10;;;7.90;99.90;;;;;;5092804;28;20232;-72
2022/11/10 04:09:40;;;;;;;29.10;17.37;;;7.80;99.90;;;;;;5092748;28;20200;-72
2022/11/10 04:17:36;;;;;;;33.23;18.77;;;7.70;99.90;;;;;;5092607;28;20195;-72
2022/11/10 04:20:03;;;;;;;27.40;17.17;;;7.80;99.90;;;;;;5092506;28;20285;-72
2022/11/10 04:25:14;;;;;;;25.43;17.47;;;7.80;99.90;;;;;;5092629;28;20265;-72
2022/11/10 04:27:41;;;;;;;36.07;18.63;;;7.70;99.90;;;;;;5092427;28;20532;-72
2022/11/10 04:30:08;;;;;;;34.60;19.87;;;7.70;99.90;;;;;;5092553;28;20196;-72
2022/11/10 04:32:36;;;;;;;37.57;19.60;;;7.70;99.90;;;;;;5092490;28;20197;-73
2022/11/10 04:35:03;;;;;;;37.90;19.10;;;7.60;99.90;;;;;;5092471;28;20345;-72
2022/11/10 04:37:30;;;;;;;34.00;20.03;;;7.70;99.90;;;;;;5092564;28;20219;-72
2022/11/10 04:39:57;;;;;;;32.17;19.20;;;7.60;99.90;;;;;;5092213;28;20705;-72
2022/11/10 04:42:23;;;;;;;35.30;19.47;;;7.60;99.90;;;;;;5092497;28;20199;-72
2022/11/10 04:44:50;;;;;;;33.03;18.37;;;7.60;99.90;;;;;;5092381;28;20200;-72
2022/11/10 04:47:16;;;;;;;40.97;21.23;;;7.60;99.90;;;;;;5092174;28;20656;-72
2022/11/10 04:49:44;;;;;;;35.57;20.83;;;7.60;99.90;;;;;;5092526;28;20196;-72
2022/11/10 04:52:11;;;;;;;41.60;20.37;;;7.60;99.90;;;;;;5092753;28;20205;-72
2022/11/10 04:54:38;;;;;;;35.17;18.87;;;7.60;99.90;;;;;;5096034;28;20196;-72
2022/11/10 04:57:04;;;;;;;35.50;19.80;;;7.40;99.90;;;;;;5096008;28;20200;-72
2022/11/10 04:59:31;;;;;;;35.53;20.47;;;7.30;99.90;;;;;;5095843;28;20193;-72
2022/11/10 05:01:57;;;;;;;39.57;20.10;;;7.20;99.90;;;;;;5095693;28;20277;-72
2022/11/10 05:04:24;;;;;;;38.27;19.77;;;7.10;99.90;;;;;;5095709;28;20232;-72
2022/11/10 05:06:53;;;;;;;42.03;20.17;;;7.10;99.90;;;;;;5095676;28;20644;-72
2022/11/10 05:09:19;;;;;;;34.80;18.63;;;7.20;99.90;;;;;;5095803;28;20196;-72
2022/11/10 05:11:47;;;;;;;41.40;20.67;;;7.20;99.90;;;;;;5095567;28;20197;-72
2022/11/10 05:14:14;;;;;;;43.80;21.97;;;7.10;99.90;;;;;;5095454;28;20673;-72
2022/11/10 05:16:40;;;;;;;41.80;23.97;;;7.20;99.90;;;;;;5095403;28;20226;-72
2022/11/10 05:19:08;;;;;;;39.10;22.10;;;7.30;99.90;;;;;;5095334;28;20609;-72
2022/11/10 05:21:34;;;;;;;37.43;21.80;;;7.50;99.90;;;;;;5095431;28;20288;-72
2022/11/10 05:24:02;;;;;;;38.53;21.33;;;7.50;99.90;;;;;;5095308;28;20712;-72
2022/11/10 05:26:29;;;;;;;39.40;22.97;;;7.60;99.90;;;;;;5095327;28;20196;-72
2022/11/10 05:28:56;;;;;;;48.50;23.50;;;7.70;99.90;;;;;;5095201;28;20724;-72
2022/11/10 05:31:22;;;;;;;48.57;25.17;;;7.70;99.90;;;;;;5095191;28;20200;-72
2022/11/10 05:33:49;;;;;;;39.17;22.00;;;7.50;99.90;;;;;;5095311;28;20201;-72
2022/11/10 05:36:15;;;;;;;40.87;21.77;;;7.50;99.90;;;;;;5095072;28;20586;-72
2022/11/10 05:38:42;;;;;;;41.23;22.03;;;7.40;99.90;;;;;;5095146;28;20204;-72
2022/11/10 05:41:10;;;;;;;39.40;22.20;;;7.30;99.90;;;;;;5094940;28;20501;-72
2022/11/10 05:43:37;;;;;;;40.33;21.87;;;7.20;99.90;;;;;;5094972;28;20201;-72
2022/11/10 05:46:04;;;;;;;45.77;22.53;;;7.10;99.90;;;;;;5095178;28;20200;-72
2022/11/10 05:48:30;;;;;;;41.90;22.10;;;7.10;99.90;;;;;;5095080;28;20204;-72
2022/11/10 05:50:57;;;;;;;40.97;21.20;;;7.10;99.90;;;;;;5094782;28;20666;-72
2022/11/10 05:53:24;;;;;;;40.43;21.67;;;7.10;99.90;;;;;;5094874;28;20196;-72
2022/11/10 05:55:50;;;;;;;40.90;21.70;;;7.20;99.90;;;;;;5094851;28;20261;-72
2022/11/10 05:58:18;;;;;;;50.03;26.03;;;7.20;99.90;;;;;;5094693;28;20208;-72
2022/11/10 06:00:45;;;;;;;48.00;25.37;;;7.30;99.90;;;;;;5094847;28;20224;-72
2022/11/10 06:03:14;;;;;;;45.50;23.53;;;7.20;99.90;;;;;;5094661;28;20220;-72
2022/11/10 06:05:41;;;;;;;46.23;24.90;;;7.30;99.90;;;;;;5093548;28;20230;-72
2022/11/10 06:08:09;;;;;;;42.57;24.37;;;7.30;99.90;;;;;;5094517;28;20253;-72
2022/11/10 06:10:36;;;;;;;43.80;24.57;;;7.40;99.90;;;;;;5094379;28;20619;-72
2022/11/10 06:13:04;;;;;;;45.10;23.90;;;7.30;99.90;;;;;;5094248;28;20598;-72
2022/11/10 06:15:32;;;;;;;43.77;25.03;;;7.30;99.90;;;;;;5094514;28;20207;-72
2022/11/10 06:17:58;;;;;;;43.00;23.40;;;7.30;99.90;;;;;;5094423;28;20196;-72
2022/11/10 06:20:26;;;;;;;52.60;28.07;;;7.20;99.90;;;;;;5094394;28;20196;-72
2022/11/10 06:23:00;;;;;;;57.87;31.33;;;7.10;99.90;;;;;;5094197;28;20257;-72
2022/11/10 06:25:28;;;;;;;46.53;24.17;;;7.10;99.90;;;;;;5094101;28;20261;-72
2022/11/10 06:27:55;;;;;;;44.73;23.87;;;7.10;99.90;;;;;;5094311;28;20236;-72
2022/11/10 06:30:22;;;;;;;47.07;24.53;;;7.20;99.90;;;;;;5094240;28;20251;-72
2022/11/10 06:32:50;;;;;;;42.80;24.80;;;7.10;99.90;;;;;;5093925;28;20215;-72
2022/11/10 06:35:17;;;;;;;50.40;25.40;;;7.00;99.90;;;;;;5094019;28;20269;-72
2022/11/10 06:37:43;;;;;;;51.27;25.47;;;7.00;99.90;;;;;;5093925;28;20253;-72
2022/11/10 06:40:12;;;;;;;50.03;25.50;;;7.10;99.90;;;;;;5093914;28;20246;-72
2022/11/10 06:42:39;;;;;;;46.93;25.43;;;7.00;99.90;;;;;;5093873;28;20232;-71
2022/11/10 06:45:06;;;;;;;49.70;26.90;;;7.00;99.90;;;;;;5093973;28;20207;-71
2022/11/10 06:47:33;;;;;;;50.10;25.37;;;7.20;99.90;;;;;;5093711;28;20205;-72
2022/11/10 06:50:01;;;;;;;51.93;25.97;;;7.30;99.90;;;;;;5093635;28;20249;-72
2022/11/10 06:52:28;;;;;;;52.60;26.73;;;7.40;99.90;;;;;;5093354;28;20204;-72
2022/11/10 06:54:55;;;;;;;53.90;26.50;;;7.50;99.90;;;;;;5093875;28;20196;-72
2022/11/10 06:57:21;;;;;;;46.77;25.97;;;7.70;99.90;;;;;;5093727;28;20200;-71
2022/11/10 06:59:48;;;;;;;51.07;26.67;;;7.80;99.90;;;;;;5093606;28;20215;-72
2022/11/10 07:02:15;;;;;;;49.20;26.27;;;7.80;99.90;;;;;;5093425;28;20761;-72
2022/11/10 07:04:42;;;;;;;55.37;26.77;;;7.80;99.90;;;;;;5093775;28;20234;-72
2022/11/10 07:07:11;;;;;;;49.27;27.00;;;7.90;99.90;;;;;;5093407;28;20227;-72
2022/11/10 07:09:38;;;;;;;50.70;26.73;;;7.90;99.90;;;;;;5093348;28;20694;-71
2022/11/10 07:12:05;;;;;;;48.17;27.07;;;7.90;99.90;;;;;;5093668;28;20203;-72
2022/11/10 07:14:32;;;;;;;50.30;26.80;;;8.00;99.90;;;;;;5093301;28;20712;-72
2022/11/10 07:16:59;;;;;;;54.80;26.57;;;8.10;99.90;;;;;;5093152;28;20215;-72
2022/11/10 07:19:26;;;;;;;49.90;26.50;;;8.10;99.90;;;;;;5093062;28;20196;-71
2022/11/10 07:21:52;;;;;;;55.43;28.57;;;8.10;99.90;;;;;;5093144;28;20216;-71
2022/11/10 07:24:20;;;;;;;51.63;29.23;;;8.20;99.90;;;;;;5093517;28;20266;-71
2022/11/10 07:26:47;;;;;;;58.73;28.57;;;8.20;99.90;;;;;;5093165;28;20589;-72
2022/11/10 07:29:14;;;;;;;56.03;28.83;;;8.20;99.90;;;;;;5093229;28;20245;-72
2022/11/10 07:31:40;;;;;;;56.87;29.23;;;8.30;99.90;;;;;;5093133;28;20202;-73
2022/11/10 07:34:07;;;;;;;58.50;28.43;;;8.40;99.90;;;;;;5092987;28;20202;-73
2022/11/10 07:36:34;;;;;;;57.50;29.30;;;8.40;99.90;;;;;;5093366;28;20204;-73
2022/11/10 07:39:00;;;;;;;55.63;31.40;;;8.50;99.90;;;;;;5093103;28;20207;-73
2022/11/10 07:41:28;;;;;;;57.00;29.63;;;8.70;99.90;;;;;;5093020;28;20579;-71
2022/11/10 07:43:55;;;;;;;51.73;27.20;;;8.90;99.90;;;;;;5087261;28;20189;-71
2022/11/10 07:46:22;;;;;;;53.47;26.27;;;8.90;99.90;;;;;;5072727;28;20201;-74
2022/11/10 07:48:49;;;;;;;48.97;27.80;;;9.00;99.90;;;;;;5072547;28;20655;-87
2022/11/10 07:51:15;;;;;;;46.57;25.23;;;8.90;99.90;;;;;;5073600;28;20209;-71
2022/11/10 07:53:43;;;;;;;44.37;24.57;;;8.90;99.90;;;;;;5073250;28;20197;-71
2022/11/10 07:56:10;;;;;;;45.43;25.13;;;9.00;99.90;;;;;;5076212;28;20548;-70
2022/11/10 07:58:38;;;;;;;41.83;24.37;;;9.00;99.90;;;;;;5073349;28;20197;-70
2022/11/10 08:01:04;;;;;;;43.07;24.63;;;8.90;99.90;;;;;;5073227;28;20201;-74
2022/11/10 08:03:31;;;;;;;38.67;23.53;;;9.00;99.90;;;;;;5072982;28;20582;-74
2022/11/10 08:05:58;;;;;;;37.27;22.27;;;9.10;99.90;;;;;;5072136;28;20630;-73
2022/11/10 08:08:24;;;;;;;34.30;20.13;;;9.10;99.90;;;;;;5072892;28;20246;-73
2022/11/10 08:10:51;;;;;;;38.47;21.50;;;9.00;99.90;;;;;;5072600;28;20197;-74
2022/11/10 08:13:18;;;;;;;31.60;19.60;;;9.10;99.90;;;;;;5073380;28;20200;-72
2022/11/10 08:15:46;;;;;;;32.80;19.43;;;9.30;99.90;;;;;;5072422;28;20296;-72
2022/11/10 08:18:16;;;;;;;32.23;19.33;;;9.40;99.90;;;;;;5072613;28;20231;-72
2022/11/10 08:20:43;;;;;;;31.33;18.43;;;9.50;99.90;;;;;;5073001;28;20287;-71
2022/11/10 08:23:10;;;;;;;30.70;18.60;;;9.50;99.90;;;;;;5073231;28;20280;-72
2022/11/10 08:25:38;;;;;;;31.90;19.10;;;9.40;99.90;;;;;;5072867;28;20200;-74
2022/11/10 08:28:06;;;;;;;29.27;18.77;;;9.40;99.90;;;;;;5075611;28;20197;-72
2022/11/10 08:30:35;;;;;;;28.43;19.53;;;9.30;99.90;;;;;;5076384;28;20196;-73
2022/11/10 08:33:04;;;;;;;31.00;20.17;;;9.30;99.90;;;;;;5076820;28;20201;-71
2022/11/10 08:35:34;;;;;;;32.03;18.90;;;9.30;99.90;;;;;;5076662;28;20201;-72
2022/11/10 08:38:07;;;;;;;27.27;17.77;;;9.20;99.90;;;;;;5081519;28;20242;-72
2022/11/10 08:40:34;;;;;;;25.87;17.00;;;9.20;99.90;;;;;;5096596;28;20196;-73
2022/11/10 08:43:02;;;;;;;26.37;17.43;;;9.10;99.90;;;;;;5096965;28;20220;-72
2022/11/10 08:45:29;;;;;;;26.67;18.53;;;9.10;99.90;;;;;;5096831;28;20659;-71
2022/11/10 08:47:59;;;;;;;25.67;17.03;;;9.20;99.90;;;;;;5096747;28;20200;-72
2022/11/10 08:50:28;;;;;;;23.27;17.10;;;9.20;99.90;;;;;;5097291;28;20193;-73
2022/11/10 08:52:55;;;;;;;24.60;17.10;;;9.30;99.90;;;;;;5097008;28;20348;-73
2022/11/10 08:55:22;;;;;;;21.80;17.50;;;9.50;99.90;;;;;;5095948;28;20254;-73
2022/11/10 08:57:49;;;;;;;21.07;16.53;;;9.50;99.90;;;;;;5096205;28;20200;-72
2022/11/10 09:00:17;;;;;;;17.90;15.53;;;9.60;99.90;;;;;;5096105;28;20200;-73
2022/11/10 09:02:44;;;;;;;21.20;14.73;;;9.70;99.90;;;;;;5096011;28;20278;-74
2022/11/10 09:05:10;;;;;;;19.23;13.37;;;9.80;99.90;;;;;;5095763;28;20258;-74
2022/11/10 09:07:47;;;;;;;17.23;12.80;;;9.80;99.90;;;;;;5095831;28;20196;-74
2022/11/10 09:10:14;;;;;;;18.30;12.67;;;9.80;99.90;;;;;;5096033;28;20610;-73
2022/11/10 09:12:41;;;;;;;14.63;11.73;;;9.90;99.90;;;;;;5095629;28;20257;-73
2022/11/10 09:15:10;;;;;;;14.83;10.67;;;10.30;99.90;;;;;;5095792;28;20606;-81
2022/11/10 09:17:37;;;;;;;14.80;9.30;;;10.20;99.90;;;;;;5095830;28;20268;-72
2022/11/10 09:20:05;;;;;;;13.57;8.90;;;10.60;99.90;;;;;;5095588;28;20250;-73
2022/11/10 09:22:32;;;;;;;13.87;9.17;;;10.60;99.90;;;;;;5095363;28;20293;-73
2022/11/10 09:25:00;;;;;;;10.37;7.60;;;10.80;99.90;;;;;;5095612;28;20242;-73
2022/11/10 09:27:26;;;;;;;8.60;7.60;;;10.80;99.90;;;;;;5095202;28;20196;-73
2022/11/10 09:29:53;;;;;;;11.40;7.57;;;10.90;99.90;;;;;;5095298;28;20201;-73
2022/11/10 09:32:20;;;;;;;12.47;7.93;;;11.00;99.90;;;;;;5095375;28;20204;-74
2022/11/10 09:34:46;;;;;;;12.50;7.37;;;11.40;99.90;;;;;;5095238;28;20226;-76
2022/11/10 09:37:13;;;;;;;8.60;7.20;;;11.20;99.90;;;;;;5095140;28;20253;-73
2022/11/10 09:39:40;;;;;;;10.73;6.53;;;11.20;99.90;;;;;;5094995;28;20200;-72
2022/11/10 09:42:31;;;;;;;10.30;7.23;;;11.00;99.90;;;;;;5095271;28;20301;-73
2022/11/10 09:45:02;;;;;;;11.43;7.97;;;10.80;99.90;;;;;;5095118;28;20622;-72
2022/11/10 09:47:38;;;;;;;10.63;7.73;;;10.70;99.90;;;;;;5094941;28;20651;-73
2022/11/10 09:50:07;;;;;;;9.40;6.73;;;10.90;99.90;;;;;;5094888;28;20676;-73
2022/11/10 09:52:36;;;;;;;10.53;6.57;;;11.10;99.90;;;;;;5094904;28;20622;-73
2022/11/10 09:55:14;;;;;;;11.90;7.13;;;11.20;99.90;;;;;;5094917;28;20196;-73
2022/11/10 09:57:43;;;;;;;10.93;6.70;;;11.10;99.90;;;;;;5094862;28;20253;-73
2022/11/10 10:00:14;;;;;;;14.47;7.43;;;11.60;99.90;;;;;;5094608;28;20728;-73
2022/11/10 10:02:44;;;;;;;13.57;6.20;;;11.30;99.90;;;;;;5094645;28;20626;-73
2022/11/10 10:05:53;;;;;;;9.13;5.00;;;11.90;99.90;;;;;;5094471;28;20228;-74
2022/11/10 10:08:30;;;;;;;9.70;5.15;;;12.70;99.90;;;;;;5089127;28;20432;-74
2022/11/10 10:11:07;;;;;;;8.43;4.72;;;13.90;99.90;;;;;;5089352;28;20279;-74
2022/11/10 10:14:00;;;;;;;11.68;5.15;;;14.10;99.90;;;;;;5074084;28;20245;-74
2022/11/10 10:16:35;;;;;;;7.78;4.30;;;15.60;99.90;;;;;;5073951;28;20599;-75
2022/11/10 10:19:11;;;;;;;6.13;4.03;;;16.40;99.90;;;;;;5073881;28;20670;-75
2022/11/10 10:21:49;;;;;;;8.55;4.38;;;16.30;99.90;;;;;;5073692;28;20200;-75
2022/11/10 10:24:19;;;;;;;9.38;4.03;;;16.40;99.90;;;;;;5073801;28;20203;-75
2022/11/10 10:26:52;;;;;;;7.63;4.03;;;13.70;99.90;;;;;;5078721;28;20200;-75
2022/11/10 10:29:23;;;;;;;9.15;3.85;;;14.00;99.90;;;;;;5093841;28;20578;-75
2022/11/10 10:31:51;;;;;;;9.65;4.03;;;15.00;99.90;;;;;;5082716;28;20545;-75
2022/11/10 10:34:21;;;;;;;8.18;3.90;;;15.60;99.90;;;;;;5073745;28;20200;-75
2022/11/10 10:36:47;;;;;;;7.97;4.13;;;15.50;99.90;;;;;;5073424;28;20197;-75
2022/11/10 10:39:17;;;;;;;8.38;4.07;;;15.90;99.90;;;;;;5073550;28;20197;-75
2022/11/10 10:41:45;;;;;;;7.20;3.78;;;16.40;99.90;;;;;;5073422;28;20342;-74
2022/11/10 10:44:14;;;;;;;8.80;3.83;;;13.40;99.90;;;;;;5073537;28;20201;-75
2022/11/10 10:46:46;;;;;;;9.80;4.20;;;13.00;99.90;;;;;;5073495;28;20197;-74
2022/11/10 10:49:16;;;;;;;7.20;4.10;;;13.00;99.90;;;;;;5073921;28;20201;-75
2022/11/10 10:51:43;;;;;;;9.43;4.13;;;13.70;99.90;;;;;;5072784;28;20541;-76
2022/11/10 10:54:30;;;;;;;10.05;3.95;;;15.50;99.90;;;;;;5074013;28;20201;-74
2022/11/10 10:57:05;;;;;;;7.43;4.07;;;17.50;99.90;;;;;;5073589;28;20255;-82
2022/11/10 10:59:33;;;;;;;6.45;4.30;;;18.80;99.90;;;;;;5073343;28;20250;-76
2022/11/10 11:02:01;;;;;;;8.40;3.92;;;17.70;99.90;;;;;;5073067;28;20200;-75
2022/11/10 11:04:34;;;;;;;6.60;3.83;;;17.90;99.90;;;;;;5073051;28;20233;-79
2022/11/10 11:07:03;;;;;;;9.68;3.60;;;18.00;99.90;;;;;;5073570;28;20201;-77
2022/11/10 11:09:42;;;;;;;5.28;3.45;;;17.90;99.90;;;;;;5073298;28;20309;-77
2022/11/10 11:12:12;;;;;;;6.47;3.60;;;17.80;99.90;;;;;;5073114;28;20200;-76
2022/11/10 11:14:39;;;;;;;6.90;3.20;;;18.20;99.90;;;;;;5073092;28;20197;-75
2022/11/10 11:17:13;;;;;;;8.48;3.50;;;18.60;99.90;;;;;;5085144;28;20226;-75
2022/11/10 11:19:41;;;;;;;8.90;3.70;;;19.60;99.90;;;;;;5092955;28;20597;-76
2022/11/10 11:22:38;;;;;;;7.40;3.65;;;19.90;99.90;;;;;;5092919;28;20656;-76
2022/11/10 11:25:16;;;;;;;4.85;3.15;;;19.80;99.90;;;;;;5090529;28;20196;-76
2022/11/10 11:27:52;;;;;;;8.20;3.10;;;19.80;99.90;;;;;;5093154;28;20192;-76
2022/11/10 11:30:21;;;;;;;7.32;2.90;;;19.30;99.90;;;;;;5093232;28;20286;-78
2022/11/10 11:33:22;;;;;;;4.68;3.05;;;18.50;99.90;;;;;;5092914;28;20586;-77
2022/11/10 11:35:57;;;;;;;4.45;2.58;;;16.20;99.90;;;;;;5079850;28;20204;-75
2022/11/10 11:38:31;;;;;;;5.50;2.97;;;16.80;99.90;;;;;;5093136;28;20245;-75
2022/11/10 11:41:07;;;;;;;5.07;3.28;;;18.70;99.90;;;;;;5092893;28;20567;-78
2022/11/10 11:44:02;;;;;;;6.43;2.85;;;20.70;99.90;;;;;;5093012;28;20223;-77
2022/11/10 11:46:37;;;;;;;5.82;2.60;;;20.20;99.90;;;;;;5078982;28;20279;-76
2022/11/10 11:49:31;;;;;;;5.63;2.60;;;20.60;99.90;;;;;;5087763;28;20650;-77
2022/11/10 11:52:07;;;;;;;7.50;2.72;;;20.10;99.90;;;;;;5081923;28;20372;-77
2022/11/10 11:54:47;;;;;;;5.05;2.42;;;22.30;99.90;;;;;;5077222;28;20270;-76
2022/11/10 11:57:24;;;;;;;6.43;2.30;;;22.00;99.90;;;;;;5075328;28;20619;-77
2022/11/10 12:00:03;;;;;;;6.95;2.20;;;22.40;99.90;;;;;;5071568;28;20204;-76
2022/11/10 12:02:58;;;;;;;5.95;2.33;;;21.60;98.00;;;;;;5073462;28;20281;-75
2022/11/10 12:05:43;;;;;;;4.72;2.47;;;21.30;97.50;;;;;;5076436;28;20302;-76
2022/11/10 12:08:20;;;;;;;7.38;2.60;;;22.20;96.90;;;;;;5076800;28;20205;-76
2022/11/10 12:10:57;;;;;;;4.50;2.30;;;19.60;97.60;;;;;;5076596;28;20193;-76
2022/11/10 12:13:44;;;;;;;7.20;2.33;;;17.80;99.90;;;;;;5076461;28;20610;-76
2022/11/10 12:16:20;;;;;;;6.50;2.75;;;19.20;99.90;;;;;;5076452;28;20201;-75
2022/11/10 12:18:52;;;;;;;7.63;2.80;;;18.70;99.90;;;;;;5076506;28;20201;-76
2022/11/10 12:21:24;;;;;;;5.35;2.83;;;19.00;99.90;;;;;;5076241;28;20815;-76
2022/11/10 12:24:32;;;;;;;10.85;3.30;;;17.40;99.90;;;;;;5076201;28;20641;-76
2022/11/10 12:27:04;;;;;;;9.10;3.13;;;17.20;99.90;;;;;;5038338;28;20196;-76
2022/11/10 12:29:35;;;;;;;6.70;3.03;;;19.10;99.90;;;;;;5076528;28;20201;-76
2022/11/10 12:32:07;;;;;;;5.63;3.08;;;20.10;99.70;;;;;;5076415;28;20192;-76
2022/11/10 12:34:39;;;;;;;8.00;3.15;;;21.40;98.60;;;;;;5076234;28;20234;-75
2022/11/10 12:37:13;;;;;;;8.60;3.40;;;22.40;96.80;;;;;;5076307;28;20546;-76
2022/11/10 12:39:49;;;;;;;5.10;2.85;;;23.90;95.50;;;;;;5076110;28;20226;-77
2022/11/10 12:42:21;;;;;;;6.05;2.80;;;23.30;93.30;;;;;;5076423;28;20258;-77
2022/11/10 12:45:16;;;;;;;4.70;2.30;;;23.10;94.00;;;;;;5077718;28;20217;-75
2022/11/10 12:47:45;;;;;;;7.32;1.95;;;22.50;92.20;;;;;;5073915;28;20200;-74
2022/11/10 12:50:33;;;;;;;4.07;2.05;;;21.70;91.30;;;;;;5075836;28;20196;-77
2022/11/10 12:53:05;;;;;;;3.33;1.80;;;22.20;90.50;;;;;;5075684;28;20263;-74
2022/11/10 12:55:36;;;;;;;7.00;1.95;;;21.30;91.30;;;;;;5075790;28;20588;-74
2022/11/10 12:58:06;;;;;;;6.03;2.10;;;20.50;92.10;;;;;;5075752;28;20532;-75
2022/11/10 13:00:38;;;;;;;5.07;1.90;;;19.70;93.40;;;;;;5075676;28;20197;-75
2022/11/10 13:03:06;;;;;;;3.78;2.20;;;20.00;92.90;;;;;;5075619;28;20216;-76
2022/11/10 13:05:36;;;;;;;9.43;2.08;;;17.70;95.30;;;;;;5081319;28;20293;-76